createdAt,value
2018-11-28T00:00:54.527Z,3.23
2018-11-28T00:01:54.577Z,3.19
2018-11-28T00:02:54.632Z,3.16
2018-11-28T00:03:54.684Z,3.16
2018-11-28T00:04:54.740Z,3.20
2018-11-28T00:05:54.793Z,3.12
2018-11-28T00:06:54.849Z,3.13
2018-11-28T00:07:55.151Z,3.10
2018-11-28T00:08:54.954Z,3.01
2018-11-28T00:09:55.010Z,2.99
2018-11-28T00:10:55.063Z,3.01
2018-11-28T00:11:55.117Z,2.99
2018-11-28T00:12:55.321Z,3.02
2018-11-28T00:13:55.223Z,3.02
2018-11-28T00:14:55.279Z,2.97
2018-11-28T00:15:55.332Z,3.04
2018-11-28T00:16:55.385Z,3.02
2018-11-28T00:17:55.439Z,2.92
2018-11-28T00:18:55.494Z,2.89
2018-11-28T00:19:55.547Z,2.86
2018-11-28T00:20:55.600Z,2.94
2018-11-28T00:21:55.655Z,2.89
2018-11-28T00:22:55.718Z,2.87
2018-11-28T00:23:55.763Z,2.84
2018-11-28T00:24:55.815Z,2.94
2018-11-28T00:25:58.810Z,2.89
2018-11-28T00:26:55.922Z,2.89
2018-11-28T00:27:55.977Z,2.81
2018-11-28T00:28:56.036Z,2.80
2018-11-28T00:29:56.084Z,2.79
2018-11-28T00:30:56.137Z,2.84
2018-11-28T00:31:56.190Z,2.80
2018-11-28T00:32:56.245Z,2.69
2018-11-28T00:33:56.298Z,2.79
2018-11-28T00:34:56.351Z,2.73
2018-11-28T00:35:56.405Z,2.73
2018-11-28T00:36:56.460Z,2.69
2018-11-28T00:37:56.512Z,2.74
2018-11-28T00:38:56.566Z,2.73
2018-11-28T00:39:56.620Z,2.68
2018-11-28T00:40:56.673Z,2.68
2018-11-28T00:41:56.726Z,2.56
2018-11-28T00:42:56.779Z,2.71
2018-11-28T00:43:56.832Z,2.62
2018-11-28T00:44:56.885Z,2.53
2018-11-28T00:45:56.939Z,2.53
2018-11-28T00:46:56.992Z,2.45
2018-11-28T00:47:57.048Z,2.48
2018-11-28T00:48:57.100Z,2.45
2018-11-28T00:49:57.152Z,2.47
2018-11-28T00:50:57.206Z,2.41
2018-11-28T00:51:57.262Z,2.45
2018-11-28T00:52:57.312Z,2.45
2018-11-28T00:53:57.366Z,2.47
2018-11-28T00:54:57.419Z,2.47
2018-11-28T00:55:57.470Z,2.50
2018-11-28T00:56:57.525Z,2.55
2018-11-28T00:57:57.577Z,2.56
2018-11-28T00:58:57.630Z,2.41
2018-11-28T00:59:57.683Z,2.40
2018-11-28T01:00:57.740Z,2.45
2018-11-28T01:01:57.791Z,2.38
2018-11-28T01:02:57.843Z,2.48
2018-11-28T01:03:57.896Z,2.47
2018-11-28T01:04:57.950Z,2.32
2018-11-28T01:05:58.005Z,2.33
2018-11-28T01:06:58.055Z,2.19
2018-11-28T01:07:58.108Z,2.18
2018-11-28T01:08:58.162Z,2.14
2018-11-28T01:09:58.214Z,2.20
2018-11-28T01:10:58.269Z,2.11
2018-11-28T01:11:58.320Z,2.12
2018-11-28T01:12:58.374Z,2.14
2018-11-28T01:13:58.427Z,2.25
2018-11-28T01:14:58.481Z,2.22
2018-11-28T01:15:58.532Z,2.22
2018-11-28T01:16:58.587Z,2.08
2018-11-28T01:17:58.640Z,2.14
2018-11-28T01:18:58.693Z,2.19
2018-11-28T01:19:58.744Z,2.20
2018-11-28T01:20:58.799Z,2.19
2018-11-28T01:21:58.853Z,2.18
2018-11-28T01:22:58.905Z,2.14
2018-11-28T01:23:58.958Z,2.20
2018-11-28T01:24:59.011Z,2.19
2018-11-28T01:25:59.064Z,2.20
2018-11-28T01:26:59.116Z,2.15
2018-11-28T01:27:59.170Z,2.19
2018-11-28T01:28:59.226Z,2.27
2018-11-28T01:29:59.276Z,2.18
2018-11-28T01:30:59.330Z,2.07
2018-11-28T01:31:59.381Z,2.04
2018-11-28T01:32:59.437Z,2.00
2018-11-28T01:33:59.491Z,2.01
2018-11-28T01:34:59.540Z,2.01
2018-11-28T01:35:59.843Z,1.93
2018-11-28T01:36:59.646Z,2.00
2018-11-28T01:37:59.699Z,1.95
2018-11-28T01:38:59.756Z,1.90
2018-11-28T01:39:59.805Z,1.89
2018-11-28T01:40:59.858Z,2.01
2018-11-28T01:41:59.910Z,1.98
2018-11-28T01:42:59.965Z,2.09
2018-11-28T01:44:00.017Z,2.08
2018-11-28T01:45:00.071Z,1.93
2018-11-28T01:46:00.122Z,1.88
2018-11-28T01:47:00.175Z,1.89
2018-11-28T01:48:00.229Z,1.86
2018-11-28T01:49:00.283Z,1.81
2018-11-28T01:50:01.562Z,1.81
2018-11-28T01:51:00.389Z,1.86
2018-11-28T01:52:00.441Z,1.93
2018-11-28T01:53:00.493Z,1.92
2018-11-28T01:54:00.546Z,1.89
2018-11-28T01:55:00.598Z,1.83
2018-11-28T01:56:00.652Z,1.85
2018-11-28T01:57:00.705Z,1.92
2018-11-28T01:58:00.759Z,1.89
2018-11-28T01:59:00.810Z,1.79
2018-11-28T02:00:00.863Z,1.86
2018-11-28T02:01:00.915Z,1.86
2018-11-28T02:02:00.968Z,1.86
2018-11-28T02:03:01.024Z,1.85
2018-11-28T02:04:01.074Z,1.82
2018-11-28T02:05:01.127Z,1.85
2018-11-28T02:06:01.179Z,1.86
2018-11-28T02:07:01.233Z,1.83
2018-11-28T02:08:01.284Z,1.88
2018-11-28T02:09:01.338Z,1.75
2018-11-28T02:10:01.393Z,1.83
2018-11-28T02:11:01.445Z,1.81
2018-11-28T02:12:01.496Z,1.86
2018-11-28T02:13:01.549Z,1.81
2018-11-28T02:14:01.602Z,1.68
2018-11-28T02:15:01.668Z,1.77
2018-11-28T02:16:01.708Z,1.77
2018-11-28T02:17:01.759Z,1.64
2018-11-28T02:18:01.815Z,1.77
2018-11-28T02:19:01.869Z,1.77
2018-11-28T02:20:01.920Z,1.72
2018-11-28T02:21:01.996Z,1.67
2018-11-28T02:22:02.023Z,1.77
2018-11-28T02:23:02.077Z,1.81
2018-11-28T02:24:02.129Z,1.79
2018-11-28T02:25:02.181Z,1.70
2018-11-28T02:26:02.236Z,1.68
2018-11-28T02:27:02.288Z,1.65
2018-11-28T02:28:02.340Z,1.64
2018-11-28T02:29:02.397Z,1.67
2018-11-28T02:30:02.446Z,1.65
2018-11-28T02:31:02.498Z,1.68
2018-11-28T02:32:02.562Z,1.65
2018-11-28T02:33:02.607Z,1.56
2018-11-28T02:34:02.658Z,1.46
2018-11-28T02:35:02.710Z,1.61
2018-11-28T02:36:02.762Z,1.65
2018-11-28T02:37:02.815Z,1.61
2018-11-28T02:38:02.869Z,1.64
2018-11-28T02:39:02.922Z,1.61
2018-11-28T02:40:02.972Z,1.67
2018-11-28T02:41:03.024Z,1.65
2018-11-28T02:42:03.078Z,1.63
2018-11-28T02:43:03.131Z,1.56
2018-11-28T02:44:03.182Z,1.60
2018-11-28T02:45:03.236Z,1.56
2018-11-28T02:46:03.290Z,1.53
2018-11-28T02:47:03.342Z,1.54
2018-11-28T02:48:03.395Z,1.63
2018-11-28T02:49:03.449Z,1.67
2018-11-28T02:50:03.500Z,1.60
2018-11-28T02:51:03.665Z,1.60
2018-11-28T02:52:03.604Z,1.50
2018-11-28T02:53:03.656Z,1.49
2018-11-28T02:54:03.709Z,1.53
2018-11-28T02:55:03.764Z,1.54
2018-11-28T02:56:03.823Z,1.53
2018-11-28T02:57:03.868Z,1.54
2018-11-28T02:58:03.920Z,1.56
2018-11-28T02:59:03.988Z,1.53
2018-11-28T03:00:04.027Z,1.52
2018-11-28T03:01:04.077Z,1.56
2018-11-28T03:02:04.130Z,1.54
2018-11-28T03:03:04.185Z,1.52
2018-11-28T03:04:04.236Z,1.63
2018-11-28T03:05:04.289Z,1.53
2018-11-28T03:06:04.341Z,1.49
2018-11-28T03:07:04.393Z,1.50
2018-11-28T03:08:04.448Z,1.52
2018-11-28T03:09:04.499Z,1.53
2018-11-28T03:10:04.555Z,1.53
2018-11-28T03:11:04.604Z,1.52
2018-11-28T03:12:04.655Z,1.54
2018-11-28T03:13:04.709Z,1.64
2018-11-28T03:14:04.765Z,1.57
2018-11-28T03:15:04.816Z,1.46
2018-11-28T03:16:04.870Z,1.53
2018-11-28T03:17:04.919Z,1.52
2018-11-28T03:18:04.977Z,1.60
2018-11-28T03:19:05.025Z,1.50
2018-11-28T03:20:05.076Z,1.50
2018-11-28T03:21:05.131Z,1.53
2018-11-28T03:22:05.182Z,1.56
2018-11-28T03:23:05.234Z,1.60
2018-11-28T03:24:05.286Z,1.54
2018-11-28T03:25:05.339Z,1.47
2018-11-28T03:26:05.391Z,1.50
2018-11-28T03:27:05.445Z,1.46
2018-11-28T03:28:05.499Z,1.52
2018-11-28T03:29:05.551Z,1.54
2018-11-28T03:30:05.603Z,1.54
2018-11-28T03:31:05.657Z,1.56
2018-11-28T03:32:05.709Z,1.50
2018-11-28T03:33:05.763Z,1.52
2018-11-28T03:34:05.814Z,1.53
2018-11-28T03:35:05.867Z,1.56
2018-11-28T03:36:05.921Z,1.52
2018-11-28T03:37:05.977Z,1.52
2018-11-28T03:38:06.277Z,1.43
2018-11-28T03:39:06.078Z,1.50
2018-11-28T03:40:06.203Z,1.56
2018-11-28T03:41:06.182Z,1.57
2018-11-28T03:42:06.236Z,1.60
2018-11-28T03:43:06.292Z,1.56
2018-11-28T03:44:06.341Z,1.61
2018-11-28T03:45:06.393Z,1.56
2018-11-28T03:46:06.446Z,1.53
2018-11-28T03:47:06.500Z,1.46
2018-11-28T03:48:06.553Z,1.50
2018-11-28T03:49:06.606Z,1.49
2018-11-28T03:50:06.659Z,1.60
2018-11-28T03:51:06.713Z,1.56
2018-11-28T03:52:06.768Z,1.53
2018-11-28T03:53:06.816Z,1.53
2018-11-28T03:54:06.869Z,1.47
2018-11-28T03:55:06.924Z,1.52
2018-11-28T03:56:06.973Z,1.47
2018-11-28T03:57:07.031Z,1.46
2018-11-28T03:58:07.080Z,1.54
2018-11-28T03:59:07.146Z,1.54
2018-11-28T04:00:07.185Z,1.53
2018-11-28T04:01:07.239Z,1.53
2018-11-28T04:02:07.299Z,1.52
2018-11-28T04:03:07.346Z,1.52
2018-11-28T04:04:07.396Z,1.52
2018-11-28T04:05:07.449Z,1.49
2018-11-28T04:06:07.506Z,1.50
2018-11-28T04:07:07.556Z,1.50
2018-11-28T04:08:07.608Z,1.50
2018-11-28T04:09:07.661Z,1.50
2018-11-28T04:10:07.715Z,1.46
2018-11-28T04:11:07.770Z,1.54
2018-11-28T04:12:07.820Z,1.56
2018-11-28T04:13:07.874Z,1.64
2018-11-28T04:14:07.926Z,1.65
2018-11-28T04:15:07.982Z,1.64
2018-11-28T04:16:08.033Z,1.71
2018-11-28T04:17:08.086Z,1.67
2018-11-28T04:18:08.140Z,1.70
2018-11-28T04:19:08.196Z,1.71
2018-11-28T04:20:08.249Z,1.68
2018-11-28T04:21:08.300Z,1.71
2018-11-28T04:22:08.351Z,1.68
2018-11-28T04:23:08.405Z,1.56
2018-11-28T04:24:08.461Z,1.47
2018-11-28T04:25:08.513Z,1.52
2018-11-28T04:26:08.564Z,1.46
2018-11-28T04:27:08.620Z,1.49
2018-11-28T04:28:08.670Z,1.44
2018-11-28T04:29:08.724Z,1.54
2018-11-28T04:30:08.778Z,1.56
2018-11-28T04:31:08.832Z,1.50
2018-11-28T04:32:08.883Z,1.52
2018-11-28T04:33:08.935Z,1.53
2018-11-28T04:34:08.989Z,1.44
2018-11-28T04:35:09.043Z,1.57
2018-11-28T04:36:09.095Z,1.64
2018-11-28T04:37:09.148Z,1.68
2018-11-28T04:38:09.201Z,1.72
2018-11-28T04:39:09.257Z,1.65
2018-11-28T04:40:09.559Z,1.65
2018-11-28T04:41:09.360Z,1.67
2018-11-28T04:42:09.415Z,1.64
2018-11-28T04:43:09.470Z,1.50
2018-11-28T04:44:09.524Z,1.50
2018-11-28T04:45:09.574Z,1.50
2018-11-28T04:46:09.627Z,1.53
2018-11-28T04:47:09.680Z,1.50
2018-11-28T04:48:09.730Z,1.60
2018-11-28T04:49:10.307Z,1.61
2018-11-28T04:50:09.838Z,1.56
2018-11-28T04:51:09.892Z,1.54
2018-11-28T04:52:09.944Z,1.53
2018-11-28T04:53:10.004Z,1.50
2018-11-28T04:54:10.051Z,1.49
2018-11-28T04:55:10.103Z,1.47
2018-11-28T04:56:10.160Z,1.56
2018-11-28T04:57:10.208Z,1.56
2018-11-28T04:58:10.263Z,1.53
2018-11-28T04:59:10.315Z,1.64
2018-11-28T05:00:10.400Z,1.56
2018-11-28T05:01:10.456Z,1.57
2018-11-28T05:02:10.474Z,1.50
2018-11-28T05:03:10.525Z,1.46
2018-11-28T05:04:10.578Z,1.54
2018-11-28T05:05:10.631Z,1.64
2018-11-28T05:06:11.226Z,1.68
2018-11-28T05:07:10.774Z,1.65
2018-11-28T05:08:10.824Z,1.67
2018-11-28T05:09:10.843Z,1.63
2018-11-28T05:10:10.896Z,1.63
2018-11-28T05:11:10.950Z,1.67
2018-11-28T05:12:11.002Z,1.63
2018-11-28T05:13:11.057Z,1.64
2018-11-28T05:14:11.112Z,1.60
2018-11-28T05:15:11.163Z,1.63
2018-11-28T05:16:11.246Z,1.63
2018-11-28T05:17:11.303Z,1.57
2018-11-28T05:18:11.352Z,1.53
2018-11-28T05:19:11.374Z,1.52
2018-11-28T05:20:15.488Z,1.49
2018-11-28T05:21:11.890Z,1.54
2018-11-28T05:22:11.703Z,1.53
2018-11-28T05:23:11.616Z,1.56
2018-11-28T05:24:11.641Z,1.52
2018-11-28T05:25:11.689Z,1.52
2018-11-28T05:26:11.744Z,1.56
2018-11-28T05:27:11.797Z,1.56
2018-11-28T05:28:11.851Z,1.53
2018-11-28T05:29:11.903Z,1.56
2018-11-28T05:30:11.960Z,1.49
2018-11-28T05:31:12.009Z,1.56
2018-11-28T05:32:12.060Z,1.44
2018-11-28T05:33:12.113Z,1.54
2018-11-28T05:34:12.552Z,1.50
2018-11-28T05:35:12.538Z,1.50
2018-11-28T05:36:12.275Z,1.56
2018-11-28T05:37:12.328Z,1.57
2018-11-28T05:38:12.863Z,1.52
2018-11-28T05:39:12.430Z,1.50
2018-11-28T05:40:12.504Z,1.57
2018-11-28T05:41:12.541Z,1.50
2018-11-28T05:42:12.589Z,1.42
2018-11-28T05:43:12.643Z,1.52
2018-11-28T05:44:12.694Z,1.50
2018-11-28T05:45:12.750Z,1.53
2018-11-28T05:46:12.800Z,1.50
2018-11-28T05:47:12.852Z,1.49
2018-11-28T05:48:12.905Z,1.56
2018-11-28T05:49:15.191Z,1.56
2018-11-28T05:50:13.011Z,1.49
2018-11-28T05:51:13.064Z,1.56
2018-11-28T05:52:13.116Z,1.53
2018-11-28T05:53:13.169Z,1.53
2018-11-28T05:54:13.222Z,1.54
2018-11-28T05:55:13.274Z,1.56
2018-11-28T05:56:13.326Z,1.53
2018-11-28T05:57:13.380Z,1.53
2018-11-28T05:58:13.433Z,1.50
2018-11-28T05:59:13.486Z,1.56
2018-11-28T06:00:13.541Z,1.52
2018-11-28T06:01:13.592Z,1.47
2018-11-28T06:02:13.644Z,1.53
2018-11-28T06:03:13.699Z,1.53
2018-11-28T06:04:14.059Z,1.46
2018-11-28T06:05:13.801Z,1.52
2018-11-28T06:06:13.854Z,1.52
2018-11-28T06:07:13.908Z,1.53
2018-11-28T06:08:13.960Z,1.53
2018-11-28T06:09:14.013Z,1.50
2018-11-28T06:10:14.066Z,1.47
2018-11-28T06:11:14.119Z,1.50
2018-11-28T06:12:14.177Z,1.47
2018-11-28T06:13:14.224Z,1.54
2018-11-28T06:14:14.277Z,1.63
2018-11-28T06:15:14.332Z,1.57
2018-11-28T06:16:14.386Z,1.60
2018-11-28T06:17:14.435Z,1.56
2018-11-28T06:18:14.490Z,1.60
2018-11-28T06:19:14.543Z,1.64
2018-11-28T06:20:14.596Z,1.72
2018-11-28T06:21:14.648Z,1.71
2018-11-28T06:22:14.701Z,1.68
2018-11-28T06:23:14.754Z,1.67
2018-11-28T06:24:14.806Z,1.68
2018-11-28T06:25:16.299Z,1.68
2018-11-28T06:26:14.913Z,1.68
2018-11-28T06:27:14.965Z,1.70
2018-11-28T06:28:15.016Z,1.71
2018-11-28T06:29:15.071Z,1.74
2018-11-28T06:30:15.124Z,1.64
2018-11-28T06:31:15.176Z,1.68
2018-11-28T06:32:15.479Z,1.71
2018-11-28T06:33:15.284Z,1.67
2018-11-28T06:34:15.334Z,1.72
2018-11-28T06:35:15.388Z,1.81
2018-11-28T06:36:15.443Z,1.67
2018-11-28T06:37:15.494Z,1.68
2018-11-28T06:38:15.546Z,1.70
2018-11-28T06:39:15.601Z,1.67
2018-11-28T06:40:15.652Z,1.64
2018-11-28T06:41:15.707Z,1.70
2018-11-28T06:42:15.759Z,1.71
2018-11-28T06:43:15.811Z,1.75
2018-11-28T06:44:15.864Z,1.75
2018-11-28T06:45:15.921Z,1.77
2018-11-28T06:46:15.977Z,1.75
2018-11-28T06:47:16.720Z,1.70
2018-11-28T06:48:16.599Z,1.70
2018-11-28T06:49:16.130Z,1.72
2018-11-28T06:50:16.180Z,1.79
2018-11-28T06:51:16.253Z,1.70
2018-11-28T06:52:16.286Z,1.72
2018-11-28T06:53:16.343Z,1.71
2018-11-28T06:54:16.393Z,1.68
2018-11-28T06:55:16.445Z,1.74
2018-11-28T06:56:16.498Z,1.67
2018-11-28T06:57:16.551Z,1.79
2018-11-28T06:58:16.605Z,1.68
2018-11-28T06:59:16.658Z,1.70
2018-11-28T07:00:16.711Z,1.75
2018-11-28T07:01:16.764Z,1.71
2018-11-28T07:02:16.817Z,1.75
2018-11-28T07:03:17.217Z,1.81
2018-11-28T07:04:16.921Z,1.82
2018-11-28T07:05:16.976Z,1.86
2018-11-28T07:06:17.029Z,1.85
2018-11-28T07:07:17.081Z,1.85
2018-11-28T07:08:17.134Z,1.83
2018-11-28T07:09:17.187Z,1.89
2018-11-28T07:10:17.859Z,1.79
2018-11-28T07:11:17.294Z,1.79
2018-11-28T07:12:17.345Z,1.79
2018-11-28T07:13:17.430Z,1.81
2018-11-28T07:14:17.451Z,1.79
2018-11-28T07:15:17.507Z,1.85
2018-11-28T07:16:17.560Z,1.82
2018-11-28T07:17:17.611Z,1.85
2018-11-28T07:18:17.662Z,1.86
2018-11-28T07:19:17.717Z,1.81
2018-11-28T07:20:17.769Z,1.85
2018-11-28T07:21:17.832Z,1.85
2018-11-28T07:22:17.875Z,1.90
2018-11-28T07:23:17.929Z,1.95
2018-11-28T07:24:17.980Z,1.89
2018-11-28T07:25:18.033Z,1.93
2018-11-28T07:26:18.429Z,1.92
2018-11-28T07:27:18.140Z,1.98
2018-11-28T07:28:18.194Z,2.07
2018-11-28T07:29:18.246Z,2.04
2018-11-28T07:30:18.300Z,2.04
2018-11-28T07:31:18.354Z,2.07
2018-11-28T07:32:18.458Z,2.08
2018-11-28T07:33:18.460Z,2.09
2018-11-28T07:34:18.512Z,2.11
2018-11-28T07:35:18.565Z,2.07
2018-11-28T07:36:18.618Z,2.11
2018-11-28T07:37:18.676Z,2.12
2018-11-28T07:38:18.728Z,2.19
2018-11-28T07:39:18.795Z,2.15
2018-11-28T07:40:18.871Z,2.18
2018-11-28T07:41:18.891Z,2.22
2018-11-28T07:42:18.969Z,2.14
2018-11-28T07:43:18.992Z,2.19
2018-11-28T07:44:19.045Z,2.12
2018-11-28T07:45:19.098Z,2.18
2018-11-28T07:46:19.150Z,2.25
2018-11-28T07:47:19.205Z,2.32
2018-11-28T07:48:19.258Z,2.30
2018-11-28T07:49:19.341Z,2.33
2018-11-28T07:50:19.395Z,2.38
2018-11-28T07:51:19.448Z,2.40
2018-11-28T07:52:19.475Z,2.41
2018-11-28T07:53:19.528Z,2.45
2018-11-28T07:54:19.609Z,2.44
2018-11-28T07:55:19.667Z,2.53
2018-11-28T07:56:19.718Z,2.45
2018-11-28T07:57:20.448Z,2.58
2018-11-28T07:58:19.792Z,2.56
2018-11-28T07:59:19.847Z,2.58
2018-11-28T08:00:19.898Z,2.59
2018-11-28T08:01:19.954Z,2.68
2018-11-28T08:02:20.007Z,2.76
2018-11-28T08:03:20.061Z,2.66
2018-11-28T08:04:20.414Z,2.59
2018-11-28T08:05:20.168Z,2.69
2018-11-28T08:06:20.222Z,2.59
2018-11-28T08:07:20.282Z,2.59
2018-11-28T08:08:20.330Z,2.66
2018-11-28T08:09:20.384Z,2.69
2018-11-28T08:10:20.438Z,2.68
2018-11-28T08:11:20.492Z,2.69
2018-11-28T08:12:20.548Z,2.69
2018-11-28T08:13:20.598Z,2.65
2018-11-28T08:14:20.658Z,2.81
2018-11-28T08:15:21.184Z,2.73
2018-11-28T08:16:20.760Z,2.79
2018-11-28T08:17:20.814Z,2.84
2018-11-28T08:18:20.869Z,2.94
2018-11-28T08:19:24.004Z,3.02
2018-11-28T08:20:20.976Z,2.98
2018-11-28T08:21:21.041Z,2.95
2018-11-28T08:22:21.084Z,3.04
2018-11-28T08:23:21.140Z,3.07
2018-11-28T08:24:21.195Z,2.97
2018-11-28T08:25:21.246Z,2.94
2018-11-28T08:26:21.302Z,3.01
2018-11-28T08:27:21.354Z,2.90
2018-11-28T08:28:22.258Z,3.01
2018-11-28T08:29:21.463Z,3.04
2018-11-28T08:30:21.517Z,2.99
2018-11-28T08:31:21.572Z,3.01
2018-11-28T08:32:21.625Z,3.02
2018-11-28T08:33:21.691Z,3.01
2018-11-28T08:34:21.736Z,2.98
2018-11-28T08:35:21.788Z,2.95
2018-11-28T08:36:21.846Z,3.10
2018-11-28T08:37:21.902Z,3.01
2018-11-28T08:38:21.952Z,3.01
2018-11-28T08:39:22.005Z,3.07
2018-11-28T08:40:22.058Z,3.10
2018-11-28T08:41:22.112Z,3.13
2018-11-28T08:42:22.167Z,3.12
2018-11-28T08:43:22.220Z,3.19
2018-11-28T08:44:22.275Z,3.17
2018-11-28T08:45:22.327Z,3.12
2018-11-28T08:46:22.421Z,3.19
2018-11-28T08:47:22.438Z,3.25
2018-11-28T08:48:22.490Z,3.22
2018-11-28T08:49:22.545Z,3.26
2018-11-28T08:50:22.601Z,3.30
2018-11-28T08:51:22.655Z,3.42
2018-11-28T08:52:22.758Z,3.37
2018-11-28T08:53:22.762Z,3.44
2018-11-28T08:54:22.817Z,3.49
2018-11-28T08:55:22.871Z,3.45
2018-11-28T08:56:22.925Z,3.45
2018-11-28T08:57:22.978Z,3.41
2018-11-28T08:58:23.033Z,3.54
2018-11-28T08:59:23.753Z,3.68
2018-11-28T09:00:23.141Z,3.60
2018-11-28T09:01:23.198Z,3.62
2018-11-28T09:02:23.251Z,3.71
2018-11-28T09:03:23.639Z,3.74
2018-11-28T09:04:23.385Z,3.90
2018-11-28T09:05:23.413Z,3.78
2018-11-28T09:06:23.468Z,3.81
2018-11-28T09:07:23.525Z,3.70
2018-11-28T09:08:23.577Z,3.84
2018-11-28T09:09:23.654Z,3.68
2018-11-28T09:10:23.754Z,3.71
2018-11-28T09:11:23.742Z,3.71
2018-11-28T09:12:23.795Z,3.74
2018-11-28T09:13:23.851Z,3.72
2018-11-28T09:14:23.905Z,3.70
2018-11-28T09:15:23.972Z,3.68
2018-11-28T09:16:24.014Z,3.77
2018-11-28T09:17:24.069Z,3.93
2018-11-28T09:18:24.123Z,3.93
2018-11-28T09:19:24.178Z,4.00
2018-11-28T09:20:24.232Z,4.13
2018-11-28T09:21:24.287Z,4.28
2018-11-28T09:22:24.378Z,4.29
2018-11-28T09:23:24.397Z,4.25
2018-11-28T09:24:24.451Z,4.24
2018-11-28T09:25:24.506Z,4.17
2018-11-28T09:26:24.562Z,4.32
2018-11-28T09:27:24.619Z,4.32
2018-11-28T09:28:24.671Z,4.34
2018-11-28T09:29:24.725Z,4.43
2018-11-28T09:30:24.781Z,4.39
2018-11-28T09:31:24.838Z,4.42
2018-11-28T09:32:24.891Z,4.43
2018-11-28T09:33:24.947Z,4.42
2018-11-28T09:34:25.005Z,4.64
2018-11-28T09:35:25.073Z,4.75
2018-11-28T09:36:25.111Z,4.79
2018-11-28T09:37:25.168Z,4.80
2018-11-28T09:38:25.224Z,4.75
2018-11-28T09:39:25.772Z,4.71
2018-11-28T09:40:25.332Z,4.84
2018-11-28T09:41:25.389Z,4.72
2018-11-28T09:42:25.444Z,4.79
2018-11-28T09:43:25.499Z,4.90
2018-11-28T09:44:25.553Z,4.97
2018-11-28T09:45:25.610Z,4.87
2018-11-28T09:46:25.666Z,4.93
2018-11-28T09:47:25.722Z,4.94
2018-11-28T09:48:25.776Z,5.01
2018-11-28T09:49:25.831Z,5.04
2018-11-28T09:50:25.889Z,5.06
2018-11-28T09:51:25.943Z,5.05
2018-11-28T09:52:25.999Z,5.04
2018-11-28T09:53:26.055Z,5.02
2018-11-28T09:54:26.114Z,5.06
2018-11-28T09:55:26.168Z,5.06
2018-11-28T09:56:26.221Z,5.09
2018-11-28T09:57:26.277Z,5.29
2018-11-28T09:58:26.369Z,5.30
2018-11-28T09:59:26.406Z,5.40
2018-11-28T10:00:26.444Z,5.40
2018-11-28T10:01:26.504Z,5.52
2018-11-28T10:02:26.558Z,5.63
2018-11-28T10:03:26.617Z,5.65
2018-11-28T10:04:26.668Z,5.70
2018-11-28T10:05:26.725Z,5.60
2018-11-28T10:06:26.782Z,5.62
2018-11-28T10:07:26.837Z,5.62
2018-11-28T10:08:26.893Z,5.63
2018-11-28T10:09:26.953Z,5.67
2018-11-28T10:10:27.042Z,5.69
2018-11-28T10:11:27.066Z,5.65
2018-11-28T10:12:27.121Z,5.69
2018-11-28T10:13:27.175Z,5.77
2018-11-28T10:14:27.234Z,5.80
2018-11-28T10:15:27.291Z,5.80
2018-11-28T10:16:27.343Z,5.81
2018-11-28T10:17:27.400Z,5.90
2018-11-28T10:18:27.456Z,6.01
2018-11-28T10:19:27.513Z,6.06
2018-11-28T10:20:27.568Z,6.03
2018-11-28T10:21:27.624Z,6.16
2018-11-28T10:22:27.685Z,6.20
2018-11-28T10:23:27.741Z,6.30
2018-11-28T10:24:27.795Z,6.20
2018-11-28T10:25:27.852Z,6.27
2018-11-28T10:26:27.909Z,6.30
2018-11-28T10:27:27.963Z,6.32
2018-11-28T10:28:28.022Z,6.40
2018-11-28T10:29:28.078Z,6.45
2018-11-28T10:30:29.144Z,6.43
2018-11-28T10:31:28.193Z,6.40
2018-11-28T10:32:28.250Z,6.45
2018-11-28T10:33:28.304Z,6.51
2018-11-28T10:34:29.607Z,6.64
2018-11-28T10:35:28.416Z,6.42
2018-11-28T10:36:28.471Z,6.58
2018-11-28T10:37:28.530Z,6.71
2018-11-28T10:38:28.587Z,6.76
2018-11-28T10:39:28.645Z,6.93
2018-11-28T10:40:28.700Z,7.04
2018-11-28T10:41:28.756Z,7.05
2018-11-28T10:42:28.814Z,7.05
2018-11-28T10:43:28.872Z,7.05
2018-11-28T10:44:28.936Z,7.11
2018-11-28T10:45:28.984Z,7.14
2018-11-28T10:46:29.041Z,7.39
2018-11-28T10:47:29.099Z,7.41
2018-11-28T10:48:29.155Z,7.39
2018-11-28T10:49:29.213Z,7.34
2018-11-28T10:50:29.269Z,7.34
2018-11-28T10:51:29.365Z,7.47
2018-11-28T10:52:29.383Z,7.47
2018-11-28T10:53:29.442Z,7.51
2018-11-28T10:54:29.498Z,7.67
2018-11-28T10:55:29.558Z,7.81
2018-11-28T10:56:29.613Z,7.84
2018-11-28T10:57:29.670Z,7.91
2018-11-28T10:58:29.731Z,7.94
2018-11-28T10:59:30.144Z,7.82
2018-11-28T11:00:29.843Z,7.94
2018-11-28T11:01:29.901Z,7.99
2018-11-28T11:02:29.957Z,7.96
2018-11-28T11:03:30.015Z,8.03
2018-11-28T11:04:30.070Z,8.20
2018-11-28T11:05:30.129Z,8.03
2018-11-28T11:06:30.188Z,8.06
2018-11-28T11:07:30.244Z,8.14
2018-11-28T11:08:30.300Z,8.14
2018-11-28T11:09:30.357Z,8.22
2018-11-28T11:10:30.414Z,8.20
2018-11-28T11:11:30.493Z,8.14
2018-11-28T11:12:30.529Z,8.20
2018-11-28T11:13:30.588Z,8.18
2018-11-28T11:14:30.648Z,8.17
2018-11-28T11:15:30.704Z,8.13
2018-11-28T11:16:30.758Z,8.28
2018-11-28T11:17:30.816Z,8.36
2018-11-28T11:18:30.916Z,8.34
2018-11-28T11:19:30.933Z,8.17
2018-11-28T11:20:31.129Z,8.20
2018-11-28T11:21:31.048Z,8.20
2018-11-28T11:22:31.105Z,8.10
2018-11-28T11:23:31.162Z,8.22
2018-11-28T11:24:31.219Z,8.24
2018-11-28T11:25:31.277Z,8.24
2018-11-28T11:26:31.336Z,8.17
2018-11-28T11:27:31.391Z,8.25
2018-11-28T11:28:31.455Z,8.14
2018-11-28T11:29:31.508Z,8.21
2018-11-28T11:30:31.575Z,8.22
2018-11-28T11:31:31.649Z,8.18
2018-11-28T11:32:31.679Z,8.09
2018-11-28T11:33:31.735Z,8.13
2018-11-28T11:34:31.819Z,8.18
2018-11-28T11:35:31.870Z,8.24
2018-11-28T11:36:31.908Z,8.32
2018-11-28T11:37:31.966Z,8.34
2018-11-28T11:38:32.023Z,8.31
2018-11-28T11:39:32.081Z,8.36
2018-11-28T11:40:32.159Z,8.32
2018-11-28T11:41:32.196Z,8.43
2018-11-28T11:42:32.252Z,8.40
2018-11-28T11:43:32.311Z,8.37
2018-11-28T11:44:32.366Z,8.40
2018-11-28T11:45:32.424Z,8.37
2018-11-28T11:46:32.483Z,8.46
2018-11-28T11:47:32.546Z,8.58
2018-11-28T11:48:32.596Z,8.54
2018-11-28T11:49:32.712Z,8.52
2018-11-28T11:50:32.712Z,8.52
2018-11-28T11:51:32.775Z,8.37
2018-11-28T11:52:32.836Z,8.34
2018-11-28T11:53:32.884Z,8.39
2018-11-28T11:54:32.944Z,8.42
2018-11-28T11:55:33.004Z,8.37
2018-11-28T11:56:33.116Z,8.58
2018-11-28T11:57:33.731Z,8.60
2018-11-28T11:58:33.173Z,8.58
2018-11-28T11:59:33.231Z,8.58
2018-11-28T12:00:33.286Z,8.61
2018-11-28T12:01:33.344Z,8.37
2018-11-28T12:02:33.404Z,8.25
2018-11-28T12:03:33.459Z,8.42
2018-11-28T12:04:33.517Z,8.55
2018-11-28T12:05:33.577Z,8.52
2018-11-28T12:06:33.633Z,8.65
2018-11-28T12:07:33.722Z,8.65
2018-11-28T12:08:33.750Z,8.63
2018-11-28T12:09:33.806Z,8.61
2018-11-28T12:10:33.862Z,8.50
2018-11-28T12:11:33.921Z,8.61
2018-11-28T12:12:34.019Z,8.70
2018-11-28T12:13:34.035Z,8.55
2018-11-28T12:14:34.101Z,8.64
2018-11-28T12:15:34.156Z,8.52
2018-11-28T12:16:34.673Z,8.61
2018-11-28T12:17:34.267Z,8.70
2018-11-28T12:18:34.325Z,8.68
2018-11-28T12:19:34.382Z,8.75
2018-11-28T12:20:34.438Z,8.70
2018-11-28T12:21:34.497Z,8.73
2018-11-28T12:22:34.555Z,8.75
2018-11-28T12:23:34.613Z,8.73
2018-11-28T12:24:34.668Z,8.70
2018-11-28T12:25:34.771Z,8.64
2018-11-28T12:26:34.787Z,8.64
2018-11-28T12:27:34.848Z,8.50
2018-11-28T12:28:34.899Z,8.39
2018-11-28T12:29:34.957Z,8.46
2018-11-28T12:30:35.021Z,8.46
2018-11-28T12:31:35.071Z,8.46
2018-11-28T12:32:35.128Z,8.54
2018-11-28T12:33:35.188Z,8.54
2018-11-28T12:34:35.244Z,8.50
2018-11-28T12:35:35.305Z,8.58
2018-11-28T12:36:35.359Z,8.50
2018-11-28T12:37:35.417Z,8.55
2018-11-28T12:38:35.475Z,8.40
2018-11-28T12:39:35.656Z,8.36
2018-11-28T12:40:35.594Z,8.46
2018-11-28T12:41:35.679Z,8.60
2018-11-28T12:42:35.704Z,8.50
2018-11-28T12:43:35.760Z,8.50
2018-11-28T12:44:35.817Z,8.47
2018-11-28T12:45:35.875Z,8.46
2018-11-28T12:46:35.934Z,8.47
2018-11-28T12:47:35.991Z,8.46
2018-11-28T12:48:36.049Z,8.54
2018-11-28T12:49:36.104Z,8.61
2018-11-28T12:50:36.162Z,8.63
2018-11-28T12:51:36.221Z,8.52
2018-11-28T12:52:36.275Z,8.52
2018-11-28T12:53:36.338Z,8.58
2018-11-28T12:54:36.392Z,8.36
2018-11-28T12:55:36.503Z,8.39
2018-11-28T12:56:36.504Z,8.39
2018-11-28T12:57:36.563Z,8.37
2018-11-28T12:58:36.618Z,8.36
2018-11-28T12:59:36.678Z,8.47
2018-11-28T13:00:36.748Z,8.39
2018-11-28T13:01:36.790Z,8.37
2018-11-28T13:02:36.849Z,8.32
2018-11-28T13:03:36.905Z,8.42
2018-11-28T13:04:36.961Z,8.37
2018-11-28T13:05:37.019Z,8.37
2018-11-28T13:06:37.076Z,8.47
2018-11-28T13:07:37.134Z,8.47
2018-11-28T13:08:37.196Z,8.37
2018-11-28T13:09:37.249Z,8.42
2018-11-28T13:10:37.307Z,8.43
2018-11-28T13:11:37.363Z,8.40
2018-11-28T13:12:37.747Z,8.39
2018-11-28T13:13:37.476Z,8.50
2018-11-28T13:14:37.535Z,8.40
2018-11-28T13:15:37.595Z,8.43
2018-11-28T13:16:37.647Z,8.50
2018-11-28T13:17:37.706Z,8.45
2018-11-28T13:18:37.764Z,8.47
2018-11-28T13:19:37.822Z,8.39